FC2ブログ

Delivers in Storm

何も3連休を狙って台風が来なくても・・・と、ほとんど引きこもり状態2日目。
ヒマで仕方ないのでHPに嘉手納の写真を追加しました。
- Summer of Kadena Air Base in 2006 -
沖縄は色温度が本土とかなり違うようで、いい色が出せません。
せめてAWBではなく、きちんとWBを取って撮影すればよかったと今さら後悔。
いつかRAWで撮影して色々と研究しようとも思っていますが、なかなか実行しない私です。
ヘタにJPGで撮った画でもEOSはイケてるので満足しちゃってます。
こんなだから、「いつまで経っても技術が向上しないヘボ野朗なんだよ」と言う声が
聞こえてきそうですが、余計なお世話です。
写真でメシを食っているワケではないので、私が楽しめていたらそれでいいのです。

22時を過ぎて小腹が減った頃、目に止まったのはPizza Hutのチラシ。
台風13号が山口県萩沖を通過中で雨こそ降っていないが、強風が吹き荒れる外。
こんな日にもデリバリーしてくれるのかな?と抱いた疑問。
ちなみに22時の岩国基地METARは以下の通り。

RJOI 171300Z 16028G38KT 9999 BKN020 OVC045 27/21 A2918 RMK PK WND 17043/38
SLP883 P0000 T02720211


結果を恐れていては何も学べるものは無い・・・と言うことで、
少し「鬼」かなと思いながら電話すると、非常に感じよくオーダーを受け付けてくれた。
もちろん私も「こんな日に申し訳御座いません」と前置きを忘れない。
平常と同じく30分で届けてくれるらしく、頼もしい限りだ。
次は内戦状態で電話してみよう。

060917
デリってくれたお兄さん、ありがとう。
最近お気に入りのSnappleのFRUIT PUNCHを飲みながら美味しく頂く。
このところ、アメリカ人以上にジャンク・フードばかり食ってる。
すこぶる体調がよろしいのはそのせいだろう。

明日は朝からRWY20だろうけど、天気の回復する時間が問題。
しかも月曜日だし、フライトは少ないだろうな・・・って言うか、部隊がおらんし。
ZapperとHAWKだけでも飛んでくれたらヨシってところか。
とりあえず172100Zに目覚ましをかけて寝るか。


スポンサーサイト



Winds
真赤激! Burn it up!
プロ野球データFreak
セリーグ順位表
Time Zone

Zulu


Local UTC+9


Guam UTC+10


Wake UTC+12


Hawaii UTC-10


PST UTC-8


EST UTC-5


カテゴリ
最新コメント
カレンダー
08 | 2006/09 | 10
- - - - - 1 2
3 4 5 6 7 8 9
10 11 12 13 14 15 16
17 18 19 20 21 22 23
24 25 26 27 28 29 30
月別アーカイブ
検索フォーム
メールフォーム

名前:
メール:
件名:
本文:

Write & Photos

二代目@ひこわ

Visitors